Time;durP1;ratioP1;P1;durP2;ratioP2;P2;SDS_P1;SDS_P2;PMS_P1;PMS_P2;Temp;Humidity;BMP_temperature;BMP_pressure;BME280_temperature;BME280_humidity;BME280_pressure;Samples;Min_cycle;Max_cycle;Signal;HPM_P1;HPM_P2
2021/03/31 00:02:20;;;;;;;6.50;5.80;;;11.80;47.10;;;;;;5054849;28;20670;-82
2021/03/31 00:04:47;;;;;;;8.87;5.23;;;11.70;47.40;;;;;;5070208;28;20629;-82
2021/03/31 00:07:14;;;;;;;5.90;5.30;;;11.60;47.50;;;;;;5047701;28;20658;-82
2021/03/31 00:09:40;;;;;;;10.60;6.83;;;11.50;47.80;;;;;;5056057;28;20662;-82
2021/03/31 00:12:09;;;;;;;7.80;5.00;;;11.40;47.80;;;;;;5047284;28;20626;-83
2021/03/31 00:14:36;;;;;;;9.27;6.15;;;11.40;47.80;;;;;;5060925;28;20618;-82
2021/03/31 00:17:03;;;;;;;8.02;5.72;;;11.30;47.90;;;;;;5054895;28;20191;-82
2021/03/31 00:19:29;;;;;;;9.05;5.80;;;11.20;48.00;;;;;;5066791;28;20200;-82
2021/03/31 00:21:56;;;;;;;6.87;5.97;;;11.20;48.20;;;;;;5046956;28;20600;-83
2021/03/31 00:24:22;;;;;;;7.07;5.55;;;11.10;48.30;;;;;;5067282;28;20695;-83
2021/03/31 00:26:49;;;;;;;9.65;6.90;;;11.10;48.40;;;;;;5055714;28;20222;-82
2021/03/31 00:29:16;;;;;;;9.60;6.43;;;11.10;48.60;;;;;;5064316;28;20244;-82
2021/03/31 00:31:42;;;;;;;6.22;5.60;;;11.10;48.80;;;;;;5070263;28;20630;-82
2021/03/31 00:34:09;;;;;;;5.70;5.10;;;11.00;48.50;;;;;;5054693;28;20196;-82
2021/03/31 00:36:35;;;;;;;8.20;6.30;;;11.00;48.50;;;;;;5054542;28;20266;-83
2021/03/31 00:39:02;;;;;;;6.80;6.00;;;11.00;48.60;;;;;;5063016;28;21664;-82
2021/03/31 00:41:28;;;;;;;8.90;6.40;;;10.80;48.80;;;;;;5058889;28;20614;-82
2021/03/31 00:43:55;;;;;;;8.00;6.75;;;10.80;48.90;;;;;;5055119;28;20200;-82
2021/03/31 00:46:22;;;;;;;9.82;6.38;;;10.80;48.70;;;;;;5070007;28;20195;-82
2021/03/31 00:48:49;;;;;;;7.18;5.25;;;10.70;48.90;;;;;;5068525;28;20312;-83
2021/03/31 00:51:15;;;;;;;9.25;7.50;;;10.80;49.20;;;;;;5069842;28;20234;-83
2021/03/31 00:53:43;;;;;;;9.80;7.60;;;10.70;49.30;;;;;;5054754;28;20744;-82
2021/03/31 00:56:11;;;;;;;8.93;6.80;;;10.70;49.20;;;;;;5050156;28;20192;-82
2021/03/31 00:58:38;;;;;;;9.50;5.85;;;10.70;49.20;;;;;;5050950;28;20265;-83
2021/03/31 01:01:05;;;;;;;7.80;5.43;;;10.70;49.10;;;;;;5064031;28;20199;-82
2021/03/31 01:03:35;;;;;;;7.05;5.97;;;10.70;49.30;;;;;;5083021;28;20202;-82
2021/03/31 01:06:03;;;;;;;8.55;6.18;;;10.60;49.20;;;;;;5069686;28;20302;-83
2021/03/31 01:08:31;;;;;;;8.88;5.82;;;10.60;49.40;;;;;;5056508;28;20228;-83
2021/03/31 01:11:01;;;;;;;9.85;6.78;;;10.60;49.20;;;;;;5061404;28;20583;-82
2021/03/31 01:13:46;;;;;;;9.40;5.80;;;10.60;49.10;;;;;;5074439;28;20206;-83
2021/03/31 01:16:27;;;;;;;6.75;6.05;;;10.60;49.30;;;;;;5073853;28;21217;-83
2021/03/31 01:19:03;;;;;;;8.18;6.03;;;10.60;49.40;;;;;;5071530;28;20194;-82
2021/03/31 01:22:07;;;;;;;6.63;5.20;;;10.50;49.60;;;;;;5069359;28;20203;-83
2021/03/31 01:25:03;;;;;;;10.68;7.00;;;10.50;49.70;;;;;;5048339;28;20207;-83
2021/03/31 01:27:53;;;;;;;10.70;6.28;;;10.40;49.70;;;;;;5057174;28;20231;-82
2021/03/31 01:30:29;;;;;;;8.70;6.55;;;10.40;49.80;;;;;;5069091;28;20210;-82
2021/03/31 01:33:22;;;;;;;8.70;5.57;;;10.30;50.00;;;;;;5078878;28;20223;-82
2021/03/31 01:35:52;;;;;;;8.20;5.82;;;10.30;50.10;;;;;;5068061;28;20207;-82
2021/03/31 01:38:24;;;;;;;8.10;6.28;;;10.20;50.00;;;;;;5057740;28;20206;-82
2021/03/31 01:40:54;;;;;;;7.03;6.28;;;10.20;50.10;;;;;;5049212;28;20252;-82
2021/03/31 01:43:24;;;;;;;13.75;7.65;;;10.30;49.80;;;;;;5049128;28;20239;-82
2021/03/31 01:45:55;;;;;;;10.70;7.85;;;10.30;49.70;;;;;;5048721;28;20828;-83
2021/03/31 01:48:27;;;;;;;12.40;6.60;;;10.30;49.60;;;;;;5068696;28;20231;-82
2021/03/31 01:51:01;;;;;;;10.27;6.93;;;10.30;49.70;;;;;;5088897;28;20202;-82
2021/03/31 01:53:29;;;;;;;9.45;6.80;;;10.40;49.80;;;;;;5073448;28;20669;-82
2021/03/31 01:55:59;;;;;;;10.35;7.32;;;10.40;49.40;;;;;;5057544;28;20682;-82
2021/03/31 01:58:27;;;;;;;8.70;7.55;;;10.40;49.20;;;;;;5060950;28;20286;-82
2021/03/31 02:00:55;;;;;;;9.27;6.85;;;10.40;49.00;;;;;;5066753;28;20210;-82
2021/03/31 02:03:25;;;;;;;8.88;6.88;;;10.50;49.00;;;;;;5055585;28;20620;-82
2021/03/31 02:05:56;;;;;;;10.55;6.75;;;10.50;48.80;;;;;;5057969;28;20199;-82
2021/03/31 02:08:26;;;;;;;11.25;7.35;;;10.50;48.80;;;;;;5061075;28;20223;-82
2021/03/31 02:10:54;;;;;;;11.00;7.55;;;10.50;48.40;;;;;;5068225;28;20567;-82
2021/03/31 02:13:22;;;;;;;9.85;6.95;;;10.60;49.00;;;;;;5055987;28;20204;-82
2021/03/31 02:15:51;;;;;;;11.52;7.35;;;10.50;48.90;;;;;;5047969;28;20282;-83
2021/03/31 02:18:19;;;;;;;15.75;8.27;;;10.50;48.80;;;;;;5059954;28;20257;-83
2021/03/31 02:20:46;;;;;;;10.77;7.93;;;10.50;49.00;;;;;;5068119;28;20199;-83
2021/03/31 02:23:15;;;;;;;8.27;6.85;;;10.50;48.80;;;;;;5063157;28;20289;-83
2021/03/31 02:25:42;;;;;;;14.82;7.00;;;10.50;49.70;;;;;;5068301;28;20210;-83
2021/03/31 02:28:09;;;;;;;12.60;7.00;;;10.40;49.60;;;;;;5055887;28;20235;-83
2021/03/31 02:30:35;;;;;;;10.65;7.50;;;10.30;49.40;;;;;;5047958;28;20250;-83
2021/03/31 02:33:04;;;;;;;10.95;6.72;;;10.30;49.50;;;;;;5048704;28;20215;-82
2021/03/31 02:35:32;;;;;;;10.38;6.82;;;10.30;49.50;;;;;;5057474;28;20196;-84
2021/03/31 02:38:01;;;;;;;10.70;7.53;;;10.30;49.80;;;;;;5057968;28;20210;-83
2021/03/31 02:40:31;;;;;;;10.63;6.50;;;10.30;49.40;;;;;;5067834;28;20609;-83
2021/03/31 02:43:00;;;;;;;8.82;6.45;;;10.30;49.70;;;;;;5050068;28;20199;-83
2021/03/31 02:45:28;;;;;;;8.48;6.72;;;10.30;49.40;;;;;;5047752;28;20204;-83
2021/03/31 02:47:57;;;;;;;9.07;6.35;;;10.30;49.30;;;;;;5063161;28;20227;-83
2021/03/31 02:50:25;;;;;;;11.48;7.85;;;10.30;49.40;;;;;;5055592;28;20215;-83
2021/03/31 02:52:53;;;;;;;10.68;6.65;;;10.30;49.30;;;;;;5054479;28;20207;-83
2021/03/31 02:55:23;;;;;;;7.63;5.88;;;10.30;49.70;;;;;;5047221;28;20192;-82
2021/03/31 02:57:51;;;;;;;9.85;6.90;;;10.20;49.40;;;;;;5054345;28;20221;-83
2021/03/31 03:00:18;;;;;;;8.82;6.57;;;10.30;49.50;;;;;;5067394;28;20199;-83
2021/03/31 03:02:47;;;;;;;11.93;6.75;;;10.20;50.20;;;;;;5052856;28;20200;-83
2021/03/31 03:05:17;;;;;;;9.63;6.47;;;10.20;50.40;;;;;;5046770;28;20200;-82
2021/03/31 03:07:43;;;;;;;10.48;8.00;;;10.10;50.10;;;;;;5058786;28;20226;-83
2021/03/31 03:10:11;;;;;;;11.50;8.30;;;10.10;50.00;;;;;;5067390;28;20560;-83
2021/03/31 03:12:44;;;;;;;11.13;7.60;;;10.10;50.50;;;;;;5054457;28;20203;-83
2021/03/31 03:15:13;;;;;;;15.05;7.63;;;9.90;51.20;;;;;;5047298;28;20250;-83
2021/03/31 03:17:41;;;;;;;11.35;8.98;;;9.90;51.40;;;;;;5057060;28;20194;-83
2021/03/31 03:20:10;;;;;;;9.35;6.90;;;9.90;51.40;;;;;;5067478;28;20196;-83
2021/03/31 03:22:38;;;;;;;8.98;6.50;;;9.80;51.70;;;;;;5073659;28;20251;-83
2021/03/31 03:25:07;;;;;;;14.20;7.47;;;9.80;51.80;;;;;;5087597;28;20252;-83
2021/03/31 03:27:36;;;;;;;7.70;6.45;;;9.80;51.80;;;;;;5068560;28;20223;-83
2021/03/31 03:30:07;;;;;;;13.25;7.78;;;9.80;51.80;;;;;;5047298;28;20210;-83
2021/03/31 03:32:35;;;;;;;8.30;6.63;;;9.70;51.80;;;;;;5055222;28;20200;-82
2021/03/31 03:35:02;;;;;;;9.65;6.80;;;9.60;51.70;;;;;;5066766;28;20226;-83
2021/03/31 03:37:29;;;;;;;11.13;7.03;;;9.60;51.90;;;;;;5063409;28;20282;-83
2021/03/31 03:39:56;;;;;;;11.85;7.25;;;9.60;52.00;;;;;;5046834;28;20199;-82
2021/03/31 03:42:23;;;;;;;9.25;6.38;;;9.60;51.90;;;;;;5052350;28;20554;-82
2021/03/31 03:44:49;;;;;;;7.70;6.85;;;9.60;51.80;;;;;;5060822;28;20204;-83
2021/03/31 03:47:18;;;;;;;11.45;9.00;;;9.70;51.70;;;;;;5049262;28;20230;-83
2021/03/31 03:49:45;;;;;;;7.78;6.90;;;9.70;51.20;;;;;;5066651;28;20195;-83
2021/03/31 03:52:15;;;;;;;10.15;7.15;;;9.70;51.30;;;;;;5052525;28;20295;-83
2021/03/31 03:54:48;;;;;;;13.70;8.02;;;9.70;51.10;;;;;;5066426;28;20513;-83
2021/03/31 03:57:15;;;;;;;11.23;7.00;;;9.70;51.10;;;;;;5058704;28;20640;-82
2021/03/31 03:59:41;;;;;;;15.57;7.00;;;9.80;51.20;;;;;;5070442;28;20207;-83
2021/03/31 04:02:07;;;;;;;9.52;6.72;;;9.70;51.70;;;;;;5064707;28;20703;-83
2021/03/31 04:04:34;;;;;;;10.75;7.43;;;9.70;51.90;;;;;;5070584;28;20249;-83
2021/03/31 04:07:01;;;;;;;10.65;6.70;;;9.60;51.60;;;;;;5066960;28;20563;-83
2021/03/31 04:09:28;;;;;;;11.45;8.20;;;9.60;51.60;;;;;;5051422;28;20235;-83
2021/03/31 04:11:55;;;;;;;9.15;7.38;;;9.70;52.10;;;;;;5055004;28;20196;-82
2021/03/31 04:14:22;;;;;;;10.77;7.10;;;9.60;51.80;;;;;;5050699;28;20196;-83
2021/03/31 04:16:49;;;;;;;10.55;7.20;;;9.60;51.60;;;;;;5064985;28;20281;-83
2021/03/31 04:19:18;;;;;;;9.13;6.35;;;9.50;52.10;;;;;;5051052;28;20614;-83
2021/03/31 04:21:44;;;;;;;11.88;7.82;;;9.50;52.50;;;;;;5068467;28;20203;-82
2021/03/31 04:24:14;;;;;;;13.95;8.48;;;9.40;52.50;;;;;;5059180;28;20210;-83
2021/03/31 04:26:42;;;;;;;8.93;6.88;;;9.40;52.70;;;;;;5069089;28;20256;-83
2021/03/31 04:29:10;;;;;;;9.10;6.38;;;9.30;52.80;;;;;;5058390;28;20227;-82
2021/03/31 04:31:37;;;;;;;9.38;8.20;;;9.40;52.40;;;;;;5070678;28;20199;-83
2021/03/31 04:34:03;;;;;;;12.77;7.45;;;9.40;52.50;;;;;;5069532;28;20249;-83
2021/03/31 04:36:30;;;;;;;11.32;7.85;;;9.40;52.70;;;;;;5066038;28;20202;-83
2021/03/31 04:38:57;;;;;;;13.25;7.82;;;9.30;53.20;;;;;;5050559;28;20744;-83
2021/03/31 04:41:24;;;;;;;12.68;7.00;;;9.30;53.10;;;;;;5051687;28;20203;-83
2021/03/31 04:43:51;;;;;;;9.52;6.80;;;9.30;53.20;;;;;;5052513;28;20200;-83
2021/03/31 04:46:18;;;;;;;8.77;6.90;;;9.20;53.00;;;;;;5050465;28;20242;-83
2021/03/31 04:48:44;;;;;;;11.13;8.20;;;9.20;52.90;;;;;;5049752;28;20216;-83
2021/03/31 04:51:11;;;;;;;12.73;8.23;;;9.20;53.00;;;;;;5051952;28;20246;-83
2021/03/31 04:53:37;;;;;;;10.70;7.20;;;9.20;53.10;;;;;;5064772;28;20188;-83
2021/03/31 04:56:06;;;;;;;9.27;8.30;;;9.30;52.50;;;;;;5068786;28;20199;-83
2021/03/31 04:58:33;;;;;;;12.40;9.13;;;9.30;52.70;;;;;;5068114;28;20735;-83
2021/03/31 05:01:01;;;;;;;9.98;8.38;;;9.20;53.10;;;;;;5069888;28;20258;-83
2021/03/31 05:03:28;;;;;;;10.00;8.15;;;9.20;53.00;;;;;;5055248;28;20206;-83
2021/03/31 05:05:54;;;;;;;10.57;6.90;;;9.20;53.00;;;;;;5049430;28;20204;-83
2021/03/31 05:08:21;;;;;;;12.75;7.72;;;9.30;52.70;;;;;;5062514;28;20226;-83
2021/03/31 05:10:47;;;;;;;9.23;8.20;;;9.40;52.50;;;;;;5066446;28;20238;-83
2021/03/31 05:13:14;;;;;;;10.45;7.97;;;9.50;52.50;;;;;;5050524;28;20204;-83
2021/03/31 05:15:42;;;;;;;17.05;8.77;;;9.40;52.60;;;;;;5052773;28;20669;-83
2021/03/31 05:18:08;;;;;;;13.55;8.60;;;9.40;53.10;;;;;;5069291;28;20195;-82
2021/03/31 05:20:35;;;;;;;11.63;8.02;;;9.30;53.40;;;;;;5068632;28;20207;-83
2021/03/31 05:23:02;;;;;;;12.50;8.10;;;9.30;53.20;;;;;;5058707;28;20207;-83
2021/03/31 05:25:29;;;;;;;17.15;9.57;;;9.30;53.20;;;;;;5049597;28;20265;-83
2021/03/31 05:27:56;;;;;;;12.77;8.13;;;9.30;53.20;;;;;;5064403;28;20617;-83
2021/03/31 05:30:23;;;;;;;10.02;6.78;;;9.40;53.30;;;;;;5053737;28;20196;-83
2021/03/31 05:32:51;;;;;;;9.90;7.70;;;9.50;53.10;;;;;;5056418;28;20206;-83
2021/03/31 05:35:17;;;;;;;10.35;8.15;;;9.60;52.90;;;;;;5068617;28;20592;-83
2021/03/31 05:37:44;;;;;;;12.07;7.82;;;9.60;52.80;;;;;;5058683;28;20194;-83
2021/03/31 05:40:11;;;;;;;13.98;8.13;;;9.60;52.90;;;;;;5049231;28;20257;-83
2021/03/31 05:42:38;;;;;;;15.98;7.97;;;9.70;52.80;;;;;;5064768;28;20196;-82
2021/03/31 05:45:07;;;;;;;13.73;8.20;;;9.90;52.70;;;;;;5068742;28;20293;-83
2021/03/31 05:47:36;;;;;;;14.68;8.45;;;10.00;51.40;;;;;;5052148;28;20749;-83
2021/03/31 05:50:04;;;;;;;13.57;8.43;;;10.10;51.30;;;;;;5069872;28;20203;-83
2021/03/31 05:52:31;;;;;;;11.13;8.43;;;10.20;51.00;;;;;;5066033;28;20203;-82
2021/03/31 05:55:01;;;;;;;12.95;7.70;;;10.30;50.90;;;;;;5068730;28;20215;-83
2021/03/31 05:57:29;;;;;;;15.82;8.07;;;10.30;50.50;;;;;;5048792;28;20219;-83
2021/03/31 05:59:56;;;;;;;10.23;8.40;;;10.30;50.50;;;;;;5067676;28;20223;-83
2021/03/31 06:02:23;;;;;;;16.17;9.40;;;10.30;50.70;;;;;;5064976;28;20200;-83
2021/03/31 06:04:51;;;;;;;14.60;9.57;;;10.40;50.60;;;;;;5049502;28;20203;-83
2021/03/31 06:07:19;;;;;;;13.23;7.82;;;10.40;50.70;;;;;;5056502;28;20241;-83
2021/03/31 06:10:11;;;;;;;14.50;8.43;;;10.30;50.60;;;;;;5062614;28;20239;-83
2021/03/31 06:12:40;;;;;;;9.27;7.72;;;10.30;50.70;;;;;;5054634;28;20206;-83
2021/03/31 06:15:12;;;;;;;10.23;7.70;;;10.40;50.80;;;;;;5088776;28;20205;-83
2021/03/31 06:17:46;;;;;;;12.52;7.63;;;10.40;50.80;;;;;;5077551;28;20328;-86
2021/03/31 06:20:13;;;;;;;17.08;10.02;;;10.50;50.90;;;;;;5069252;28;20199;-84
2021/03/31 06:22:53;;;;;;;11.75;8.40;;;10.60;51.20;;;;;;5065073;28;20564;-85
2021/03/31 06:25:22;;;;;;;14.52;8.48;;;10.60;51.30;;;;;;5048254;28;20208;-84
2021/03/31 06:27:53;;;;;;;11.25;7.70;;;10.70;51.30;;;;;;5056790;28;20215;-85
2021/03/31 06:30:23;;;;;;;14.65;8.48;;;10.80;51.10;;;;;;5049276;28;20222;-85
2021/03/31 06:32:52;;;;;;;18.02;8.05;;;10.90;51.10;;;;;;5050525;28;20557;-85
2021/03/31 06:35:22;;;;;;;12.80;8.75;;;10.90;50.90;;;;;;5061913;28;20206;-85
2021/03/31 06:37:50;;;;;;;10.00;8.18;;;11.10;51.00;;;;;;5067935;28;20228;-85
2021/03/31 06:40:35;;;;;;;11.48;8.25;;;11.20;51.00;;;;;;5073957;28;20648;-85
2021/03/31 06:43:17;;;;;;;12.63;7.68;;;11.30;51.10;;;;;;5070760;28;20195;-85
2021/03/31 06:46:00;;;;;;;8.55;7.32;;;11.30;51.10;;;;;;5079215;28;20226;-86
2021/03/31 06:48:30;;;;;;;10.00;7.65;;;11.40;51.10;;;;;;5054103;28;20215;-85
2021/03/31 06:50:57;;;;;;;13.63;7.82;;;11.40;51.00;;;;;;5053664;28;20196;-86
2021/03/31 06:53:30;;;;;;;9.50;6.97;;;11.40;51.00;;;;;;5054885;28;20219;-86
2021/03/31 06:56:02;;;;;;;7.95;6.90;;;11.40;50.90;;;;;;5053493;28;20199;-86
2021/03/31 06:58:33;;;;;;;10.60;7.03;;;11.50;50.90;;;;;;5052136;28;20225;-85
2021/03/31 07:01:00;;;;;;;16.10;7.20;;;11.50;50.80;;;;;;5054727;28;20244;-85
2021/03/31 07:03:28;;;;;;;9.30;7.07;;;11.60;50.60;;;;;;5054557;28;20624;-86
2021/03/31 07:05:54;;;;;;;9.80;8.55;;;11.70;50.70;;;;;;5057006;28;20204;-86
2021/03/31 07:08:21;;;;;;;11.05;8.05;;;11.80;50.90;;;;;;5056325;28;20230;-85
2021/03/31 07:10:51;;;;;;;9.18;7.25;;;11.80;50.80;;;;;;5057257;28;20700;-85
2021/03/31 07:13:27;;;;;;;18.60;9.40;;;12.00;50.70;;;;;;5052963;28;22260;-85
2021/03/31 07:15:54;;;;;;;8.80;6.70;;;12.00;50.70;;;;;;5055121;28;20626;-85
2021/03/31 07:18:22;;;;;;;10.50;6.50;;;12.20;50.90;;;;;;5054288;28;21426;-85
2021/03/31 07:20:53;;;;;;;10.33;7.50;;;12.30;50.60;;;;;;5056522;28;20609;-86
2021/03/31 07:23:21;;;;;;;12.07;7.17;;;12.40;50.40;;;;;;5052333;28;20671;-85
2021/03/31 07:25:51;;;;;;;13.90;7.37;;;12.60;50.40;;;;;;5054248;28;21498;-85
2021/03/31 07:28:23;;;;;;;11.93;7.80;;;12.80;49.60;;;;;;5050463;28;20765;-85
2021/03/31 07:30:50;;;;;;;11.07;7.40;;;13.00;49.60;;;;;;5057707;28;20245;-86
2021/03/31 07:33:20;;;;;;;13.70;6.90;;;13.00;49.10;;;;;;5052977;28;20613;-85
2021/03/31 07:35:49;;;;;;;12.40;6.87;;;13.10;49.00;;;;;;5056854;28;20618;-84
2021/03/31 07:38:18;;;;;;;10.80;8.03;;;13.20;48.70;;;;;;5053472;28;20621;-85
2021/03/31 07:40:46;;;;;;;10.17;7.87;;;13.40;48.50;;;;;;5052193;28;20614;-87
2021/03/31 07:43:16;;;;;;;9.80;6.57;;;13.50;48.60;;;;;;5049273;28;20626;-85
2021/03/31 07:45:45;;;;;;;11.70;7.47;;;13.60;48.60;;;;;;5055233;28;21407;-86
2021/03/31 07:48:13;;;;;;;14.23;7.43;;;13.70;48.60;;;;;;5055202;28;20649;-84
2021/03/31 07:50:40;;;;;;;10.50;7.13;;;13.80;48.00;;;;;;5048453;28;20627;-85
2021/03/31 07:53:07;;;;;;;10.13;6.90;;;14.00;48.30;;;;;;5029285;28;20964;-85
2021/03/31 07:55:37;;;;;;;8.27;6.30;;;14.10;48.60;;;;;;5027602;28;20607;-85
2021/03/31 07:58:25;;;;;;;11.10;6.67;;;14.30;48.30;;;;;;5035645;28;21262;-85
2021/03/31 08:00:58;;;;;;;9.43;7.90;;;14.60;47.80;;;;;;5031353;28;20630;-85
2021/03/31 08:03:27;;;;;;;9.27;6.93;;;14.60;47.10;;;;;;5036113;28;20664;-85
2021/03/31 08:06:21;;;;;;;14.37;6.47;;;14.70;47.30;;;;;;5027738;28;20619;-85
2021/03/31 08:08:59;;;;;;;14.33;7.43;;;15.00;46.80;;;;;;5034579;28;20705;-86
2021/03/31 08:11:57;;;;;;;8.63;6.07;;;15.10;46.20;;;;;;5033141;28;20719;-85
2021/03/31 08:14:46;;;;;;;12.60;6.60;;;15.40;46.60;;;;;;5037935;28;20655;-85
2021/03/31 08:17:15;;;;;;;8.37;6.43;;;15.50;46.30;;;;;;5044521;28;20614;-85
2021/03/31 08:20:01;;;;;;;8.00;6.53;;;15.70;46.10;;;;;;5042817;28;20659;-86
2021/03/31 08:22:40;;;;;;;8.97;6.80;;;15.90;45.60;;;;;;5047040;28;20701;-85
2021/03/31 08:25:19;;;;;;;9.17;7.03;;;16.10;45.70;;;;;;5024328;28;20947;-85
2021/03/31 08:28:03;;;;;;;13.87;7.27;;;16.30;44.90;;;;;;5029302;28;20865;-85
2021/03/31 08:30:33;;;;;;;9.13;7.17;;;16.60;46.00;;;;;;5024892;28;20639;-85
2021/03/31 08:33:00;;;;;;;7.80;6.23;;;16.80;45.10;;;;;;5031024;28;20637;-85
2021/03/31 08:35:28;;;;;;;8.80;7.13;;;16.80;44.90;;;;;;5038931;28;20630;-85
2021/03/31 08:37:55;;;;;;;8.63;6.20;;;17.00;44.70;;;;;;5024120;28;21244;-86
2021/03/31 08:40:22;;;;;;;10.83;7.13;;;17.10;43.80;;;;;;5024941;28;21507;-86
2021/03/31 08:42:51;;;;;;;7.93;6.60;;;17.20;43.90;;;;;;5030830;28;20653;-85
2021/03/31 08:45:30;;;;;;;9.75;6.80;;;17.40;43.80;;;;;;5045571;28;20736;-86
2021/03/31 08:47:58;;;;;;;8.00;6.10;;;17.60;43.40;;;;;;5030079;28;20258;-86
2021/03/31 08:50:28;;;;;;;8.23;6.57;;;17.80;43.30;;;;;;5045217;28;20630;-85
2021/03/31 08:53:00;;;;;;;8.60;6.00;;;17.90;42.30;;;;;;5032390;28;20729;-84
2021/03/31 08:55:31;;;;;;;8.57;7.00;;;18.10;42.30;;;;;;5029198;28;20615;-84
2021/03/31 08:57:58;;;;;;;8.07;5.77;;;18.20;42.40;;;;;;5027769;28;21240;-82
2021/03/31 09:00:25;;;;;;;8.53;6.40;;;18.40;42.30;;;;;;5045105;28;20622;-85
2021/03/31 09:03:03;;;;;;;20.43;8.90;;;18.50;41.90;;;;;;5036665;28;21265;-84
2021/03/31 09:05:30;;;;;;;9.97;5.60;;;18.70;42.40;;;;;;5029584;28;20772;-83
2021/03/31 09:08:01;;;;;;;8.20;6.57;;;18.70;41.90;;;;;;5042856;28;21354;-84
2021/03/31 09:10:28;;;;;;;10.47;6.30;;;18.70;41.90;;;;;;5044138;28;20705;-83
2021/03/31 09:12:55;;;;;;;10.83;6.30;;;18.50;41.10;;;;;;5031981;28;20607;-83
2021/03/31 09:15:23;;;;;;;7.67;6.07;;;18.70;42.30;;;;;;5047923;28;20744;-84
2021/03/31 09:17:54;;;;;;;12.97;7.27;;;18.70;40.70;;;;;;5029825;28;20731;-84
2021/03/31 09:20:23;;;;;;;8.13;6.10;;;18.90;41.40;;;;;;5028716;28;20744;-84
2021/03/31 09:22:49;;;;;;;8.60;7.30;;;19.00;42.40;;;;;;5037254;28;20616;-84
2021/03/31 09:25:19;;;;;;;13.67;7.70;;;19.10;42.90;;;;;;5029642;28;20628;-84
2021/03/31 09:27:46;;;;;;;8.43;7.20;;;19.30;42.70;;;;;;5033000;28;20959;-84
2021/03/31 09:30:17;;;;;;;12.50;6.23;;;19.60;42.50;;;;;;5050409;28;20612;-84
2021/03/31 09:32:50;;;;;;;9.10;6.50;;;19.70;41.50;;;;;;5062191;28;20630;-84
2021/03/31 09:35:19;;;;;;;24.92;9.90;;;19.90;42.00;;;;;;5045054;28;20744;-84
2021/03/31 09:37:50;;;;;;;10.40;7.07;;;20.00;42.40;;;;;;5053059;28;20206;-85
2021/03/31 09:40:21;;;;;;;9.60;7.33;;;20.00;42.50;;;;;;5060908;28;21265;-84
2021/03/31 09:42:53;;;;;;;10.53;7.23;;;20.00;43.80;;;;;;5043303;28;20641;-85
2021/03/31 09:45:23;;;;;;;8.63;7.60;;;20.20;44.20;;;;;;5067154;28;20629;-85
2021/03/31 09:47:50;;;;;;;10.60;7.60;;;20.20;44.00;;;;;;5045796;28;20664;-84
2021/03/31 09:50:16;;;;;;;8.40;6.77;;;20.30;44.30;;;;;;5041166;28;20640;-84
2021/03/31 09:52:43;;;;;;;10.10;7.40;;;20.40;44.00;;;;;;5029977;28;20625;-85
2021/03/31 09:55:13;;;;;;;7.97;6.77;;;20.50;43.70;;;;;;5042419;28;21402;-84
2021/03/31 09:57:43;;;;;;;8.33;7.00;;;20.60;43.10;;;;;;5048094;28;20629;-85
2021/03/31 10:00:12;;;;;;;8.33;6.37;;;20.70;43.10;;;;;;5029375;28;20621;-85
2021/03/31 10:02:40;;;;;;;7.73;5.97;;;20.80;42.70;;;;;;5030596;28;20626;-84
2021/03/31 10:05:10;;;;;;;8.70;6.50;;;20.70;42.40;;;;;;5030311;28;20618;-84
2021/03/31 10:07:37;;;;;;;8.13;6.80;;;20.70;42.50;;;;;;5044043;28;20670;-84
2021/03/31 10:10:05;;;;;;;10.20;7.50;;;20.70;42.40;;;;;;5046861;28;20674;-84
2021/03/31 10:12:36;;;;;;;12.90;6.60;;;21.00;41.90;;;;;;5048729;28;20783;-84
2021/03/31 10:15:10;;;;;;;7.90;5.70;;;21.00;41.10;;;;;;5035382;28;20627;-84
2021/03/31 10:17:37;;;;;;;8.53;7.07;;;21.30;41.60;;;;;;5041677;28;20626;-85
2021/03/31 10:20:11;;;;;;;7.87;6.17;;;21.40;42.40;;;;;;5047702;28;20644;-84
2021/03/31 10:22:38;;;;;;;9.17;6.97;;;21.40;41.80;;;;;;5054496;28;20635;-85
2021/03/31 10:25:06;;;;;;;8.37;6.77;;;21.50;42.00;;;;;;5036575;28;20638;-84
2021/03/31 10:27:45;;;;;;;8.50;6.70;;;21.70;42.40;;;;;;5044049;28;20623;-83
2021/03/31 10:30:24;;;;;;;6.80;6.10;;;21.90;41.60;;;;;;5035651;28;20769;-84
2021/03/31 10:32:53;;;;;;;6.93;6.23;;;21.90;40.80;;;;;;5044789;28;20625;-85
2021/03/31 10:35:44;;;;;;;9.40;6.83;;;22.00;40.70;;;;;;5055179;28;21106;-85
2021/03/31 10:38:19;;;;;;;11.37;6.20;;;22.10;40.70;;;;;;5051538;28;21317;-85
2021/03/31 10:41:42;;;;;;;9.87;7.47;;;22.20;40.70;;;;;;5052610;28;20613;-86
2021/03/31 10:47:11;;;;;;;7.87;6.43;;;22.50;38.20;;;;;;5053873;28;20625;-84
2021/03/31 10:49:42;;;;;;;8.07;6.20;;;22.60;39.10;;;;;;5055662;28;20684;-84
2021/03/31 10:52:14;;;;;;;10.30;6.73;;;22.70;39.20;;;;;;5053815;28;20968;-84
2021/03/31 10:54:41;;;;;;;10.40;6.40;;;22.70;37.90;;;;;;5054573;28;20627;-85
2021/03/31 10:57:10;;;;;;;8.77;6.97;;;22.80;37.40;;;;;;5056420;28;20598;-84
2021/03/31 10:59:37;;;;;;;12.60;7.60;;;22.80;38.10;;;;;;5054214;28;20622;-84
2021/03/31 11:02:04;;;;;;;8.87;7.27;;;22.40;37.40;;;;;;5057110;28;20606;-85
2021/03/31 11:04:31;;;;;;;15.90;9.07;;;22.20;38.20;;;;;;5056186;28;20614;-84
2021/03/31 11:06:57;;;;;;;13.33;8.10;;;22.50;38.00;;;;;;5054959;28;20598;-84
2021/03/31 11:09:24;;;;;;;11.43;7.30;;;22.80;37.60;;;;;;5057628;28;20665;-84
2021/03/31 11:11:51;;;;;;;8.87;7.00;;;23.00;37.90;;;;;;5055362;28;20615;-84
2021/03/31 11:14:18;;;;;;;8.97;7.33;;;23.20;37.10;;;;;;5054815;28;20608;-85
2021/03/31 11:16:50;;;;;;;8.13;7.30;;;23.30;37.10;;;;;;5056036;28;20730;-85
2021/03/31 11:19:31;;;;;;;8.80;7.07;;;23.40;37.80;;;;;;5054753;28;21093;-86
2021/03/31 11:27:41;;;;;;;10.90;8.20;;;23.20;37.70;;;;;;4972899;28;20626;-85
2021/03/31 11:30:10;;;;;;;8.63;6.83;;;23.10;37.60;;;;;;4974817;28;20667;-85
2021/03/31 11:32:41;;;;;;;9.03;7.83;;;23.40;38.10;;;;;;5012552;28;20619;-86
2021/03/31 11:35:08;;;;;;;9.73;8.43;;;23.60;37.90;;;;;;5055682;28;21253;-86
2021/03/31 11:37:35;;;;;;;9.63;8.10;;;23.70;37.40;;;;;;5055328;28;20632;-85
2021/03/31 11:40:02;;;;;;;9.50;7.90;;;24.40;36.00;;;;;;5050106;28;20620;-84
2021/03/31 11:42:28;;;;;;;11.40;9.27;;;24.60;36.20;;;;;;5043630;28;20608;-84
2021/03/31 11:44:55;;;;;;;11.20;8.50;;;24.90;35.10;;;;;;5043551;28;20685;-85
2021/03/31 11:47:21;;;;;;;8.00;7.20;;;24.60;33.70;;;;;;5031182;28;20662;-85
2021/03/31 11:49:49;;;;;;;9.47;7.77;;;24.40;35.40;;;;;;5044500;28;20653;-85
2021/03/31 11:52:15;;;;;;;12.40;8.17;;;24.40;35.30;;;;;;5042249;28;20622;-85
2021/03/31 11:54:42;;;;;;;11.03;7.23;;;24.20;35.40;;;;;;5041195;28;20627;-85
2021/03/31 11:57:08;;;;;;;9.60;8.30;;;24.00;36.60;;;;;;5046692;28;20626;-85
2021/03/31 11:59:35;;;;;;;11.33;7.60;;;23.90;35.40;;;;;;5028819;28;21214;-85
2021/03/31 12:02:02;;;;;;;9.20;7.83;;;24.00;34.90;;;;;;5025393;28;20630;-86
2021/03/31 12:04:29;;;;;;;10.97;9.47;;;24.00;35.20;;;;;;5030478;28;21333;-85
2021/03/31 12:06:56;;;;;;;12.80;7.90;;;23.60;35.60;;;;;;5025966;28;20633;-86
2021/03/31 12:09:23;;;;;;;10.40;8.43;;;23.80;35.70;;;;;;5041616;28;20673;-86
2021/03/31 12:11:50;;;;;;;10.30;8.50;;;24.00;34.80;;;;;;5045214;28;20683;-86
2021/03/31 12:14:16;;;;;;;9.27;7.77;;;24.00;35.10;;;;;;5043456;28;20618;-85
2021/03/31 12:16:43;;;;;;;9.57;7.83;;;23.40;34.90;;;;;;5045027;28;20619;-86
2021/03/31 12:19:13;;;;;;;12.20;8.80;;;23.20;34.10;;;;;;5040982;28;20625;-86
2021/03/31 12:21:39;;;;;;;13.23;8.77;;;23.30;34.60;;;;;;5051762;28;21032;-86
2021/03/31 12:24:08;;;;;;;11.03;9.43;;;23.00;34.50;;;;;;5044191;28;20634;-86
2021/03/31 12:26:34;;;;;;;9.80;7.50;;;23.00;35.20;;;;;;5030413;28;20663;-86
2021/03/31 12:29:01;;;;;;;10.57;7.97;;;23.20;35.10;;;;;;5032558;28;20649;-86
2021/03/31 12:31:28;;;;;;;11.60;9.07;;;23.30;35.60;;;;;;5035050;28;20609;-87
2021/03/31 12:33:55;;;;;;;9.07;7.43;;;23.30;35.40;;;;;;5054785;28;20613;-88
2021/03/31 12:36:24;;;;;;;12.33;9.00;;;23.40;35.10;;;;;;5054549;28;21287;-86
2021/03/31 12:38:51;;;;;;;9.93;8.80;;;23.10;34.40;;;;;;5047936;28;20631;-87
2021/03/31 12:41:18;;;;;;;17.40;9.50;;;23.00;34.90;;;;;;5031774;28;20621;-87
2021/03/31 12:43:46;;;;;;;10.87;8.30;;;23.30;35.90;;;;;;5056621;28;20617;-87
2021/03/31 12:46:13;;;;;;;14.13;9.13;;;23.70;35.60;;;;;;5061458;28;20633;-87
2021/03/31 12:48:41;;;;;;;8.73;7.80;;;23.90;35.00;;;;;;5057515;28;20671;-86
2021/03/31 12:51:10;;;;;;;12.13;9.23;;;24.20;35.30;;;;;;5061407;28;20728;-86
2021/03/31 12:53:38;;;;;;;10.20;9.00;;;23.80;35.20;;;;;;5046616;28;20620;-86
2021/03/31 12:56:05;;;;;;;12.00;8.30;;;23.90;35.10;;;;;;5030798;28;20807;-86
2021/03/31 12:58:38;;;;;;;11.70;7.57;;;24.20;34.90;;;;;;5054679;28;20606;-86
2021/03/31 13:01:11;;;;;;;14.70;8.60;;;24.50;35.40;;;;;;5050630;28;20722;-86
2021/03/31 13:03:38;;;;;;;9.97;8.80;;;23.90;33.90;;;;;;5056247;28;20643;-87
2021/03/31 13:06:05;;;;;;;10.50;8.47;;;23.80;34.50;;;;;;5040593;28;20612;-86